LFBO/TLS METAR and TAF weather

Enter ICAO airport designator
Station Type Date Time Source
LFBO METAR 2020/08/15 10:00 UTC NOAA

LFBO 151000Z AUTO 07006KT 020V150 CAVOK 28/15 Q1012 NOSIG


Station Type Date Time Source
LFBO Decoded METAR 2020/08/15 10:00 UTC NOAA

Toulouse / Blagnac, France (LFBO) 43-38N 001-22E 153M
Aug 15, 2020 - 06:00 AM EDT / 2020.08.15 1000 UTC
Wind: from the ENE (070 degrees) at 7 MPH (6 KT) (direction variable):0
Visibility: greater than 7 mile(s):0
Temperature: 82 F (28 C)
Dew Point: 59 F (15 C)
Relative Humidity: 45%
Pressure (altimeter): 29.88 in. Hg (1012 hPa)
ob: LFBO 151000Z AUTO 07006KT 020V150 CAVOK 28/15 Q1012 NOSIG
cycle: 10

Station Type Date Time Source
LFBO TAF 2020/08/15 06:21 UTC NOAA

TAF LFBO 150500Z 1506/1612 VRB03KT CAVOK
TEMPO 1515/1609 FEW050CB
BECMG 1517/1519 28012KT
BECMG 1521/1524 BKN008 BKN025 PROB30
TEMPO 1521/1603 VRB15G35KT 4000 TSRA SCT045CB

Example: see airport list